createdAt,value
2022-08-05T00:00:19.238Z,23.60
2022-08-05T00:02:51.611Z,23.60
2022-08-05T00:06:02.699Z,23.70
2022-08-05T00:08:32.805Z,23.60
2022-08-05T00:11:01.478Z,23.60
2022-08-05T00:13:39.125Z,23.50
2022-08-05T00:16:09.479Z,23.50
2022-08-05T00:18:41.048Z,23.50
2022-08-05T00:21:09.570Z,23.50
2022-08-05T00:23:46.364Z,23.50
2022-08-05T00:26:22.567Z,23.40
2022-08-05T00:31:53.962Z,23.40
2022-08-05T00:34:55.195Z,23.00
2022-08-05T00:37:12.816Z,23.00
2022-08-05T00:39:43.942Z,23.00
2022-08-05T00:42:11.464Z,23.00
2022-08-05T00:44:58.334Z,22.90
2022-08-05T00:47:26.150Z,22.80
2022-08-05T00:50:12.865Z,22.80
2022-08-05T00:52:45.448Z,22.70
2022-08-05T00:57:55.358Z,22.90
2022-08-05T01:00:26.013Z,22.80
2022-08-05T01:02:53.032Z,22.90
2022-08-05T01:05:20.088Z,22.90
2022-08-05T01:08:29.828Z,22.90
2022-08-05T01:10:51.828Z,22.80
2022-08-05T01:13:58.335Z,22.90
2022-08-05T01:16:38.633Z,23.00
2022-08-05T01:19:30.123Z,22.90
2022-08-05T01:22:23.889Z,23.00
2022-08-05T01:24:50.980Z,22.90
2022-08-05T01:27:55.895Z,22.80
2022-08-05T01:30:34.654Z,22.80
2022-08-05T01:33:08.362Z,22.80
2022-08-05T01:35:51.621Z,22.60
2022-08-05T01:38:26.957Z,22.50
2022-08-05T01:40:58.710Z,22.50
2022-08-05T01:43:31.724Z,22.50
2022-08-05T01:46:07.330Z,22.50
2022-08-05T01:48:49.535Z,22.40
2022-08-05T01:51:18.746Z,22.30
2022-08-05T01:53:57.362Z,22.40
2022-08-05T01:58:09.946Z,22.50
2022-08-05T01:59:23.536Z,22.50
2022-08-05T02:01:52.137Z,22.40
2022-08-05T02:04:23.703Z,22.50
2022-08-05T02:06:52.953Z,22.50
2022-08-05T02:09:20.541Z,22.60
2022-08-05T02:11:52.289Z,22.50
2022-08-05T02:14:32.990Z,22.40
2022-08-05T02:17:29.782Z,22.40
2022-08-05T02:20:05.817Z,22.40
2022-08-05T02:22:45.098Z,22.40
2022-08-05T02:25:22.143Z,22.50
2022-08-05T02:27:58.364Z,22.30
2022-08-05T02:30:32.438Z,22.30
2022-08-05T02:33:03.702Z,22.30
2022-08-05T02:35:37.654Z,22.10
2022-08-05T02:38:12.447Z,22.10
2022-08-05T02:40:46.810Z,21.90
2022-08-05T02:43:16.624Z,21.80
2022-08-05T02:45:52.294Z,21.80
2022-08-05T02:48:29.112Z,21.70
2022-08-05T02:51:01.995Z,21.60
2022-08-05T02:53:39.260Z,21.70
2022-08-05T02:56:16.006Z,21.70
2022-08-05T02:58:51.590Z,21.70
2022-08-05T03:01:31.274Z,21.70
2022-08-05T03:04:14.410Z,21.70
2022-08-05T03:06:55.504Z,21.70
2022-08-05T03:09:36.045Z,21.60
2022-08-05T03:12:06.526Z,21.60
2022-08-05T03:17:12.596Z,21.60
2022-08-05T03:19:39.295Z,21.20
2022-08-05T03:22:16.325Z,21.10
2022-08-05T03:24:47.108Z,21.00
2022-08-05T03:27:17.969Z,20.90
2022-08-05T03:30:08.403Z,20.80
2022-08-05T03:32:34.051Z,20.70
2022-08-05T03:35:02.059Z,20.70
2022-08-05T03:37:31.457Z,20.70
2022-08-05T03:40:14.367Z,20.70
2022-08-05T03:42:52.102Z,20.70
2022-08-05T03:45:23.513Z,20.70
2022-08-05T03:47:51.613Z,20.60
2022-08-05T03:50:18.688Z,20.60
2022-08-05T03:55:49.760Z,20.50
2022-08-05T03:56:09.836Z,20.50
2022-08-05T03:58:42.817Z,20.40
2022-08-05T04:01:13.074Z,20.40
2022-08-05T04:03:42.343Z,20.30
2022-08-05T04:06:33.794Z,20.30
2022-08-05T04:09:02.568Z,20.20
2022-08-05T04:11:50.869Z,20.10
2022-08-05T04:14:19.613Z,20.10
2022-08-05T04:16:58.693Z,20.20
2022-08-05T04:19:30.348Z,20.20
2022-08-05T04:22:08.788Z,20.20
2022-08-05T04:24:52.583Z,20.20
2022-08-05T04:27:19.824Z,20.20
2022-08-05T04:30:08.559Z,20.00
2022-08-05T04:32:38.011Z,19.90
2022-08-05T04:35:06.671Z,19.60
2022-08-05T04:38:02.158Z,19.50
2022-08-05T04:40:36.463Z,19.70
2022-08-05T04:43:06.285Z,19.50
2022-08-05T04:45:48.145Z,19.50
2022-08-05T04:48:27.831Z,19.70
2022-08-05T04:51:02.484Z,19.90
2022-08-05T04:53:33.552Z,19.90
2022-08-05T04:56:33.098Z,19.90
2022-08-05T04:58:49.748Z,19.90
2022-08-05T05:01:33.715Z,20.00
2022-08-05T05:04:06.028Z,20.00
2022-08-05T05:06:39.449Z,20.00
2022-08-05T05:09:14.164Z,20.00
2022-08-05T05:11:53.269Z,19.80
2022-08-05T05:14:28.106Z,19.80
2022-08-05T05:17:00.249Z,20.00
2022-08-05T05:19:36.257Z,20.10
2022-08-05T05:22:24.169Z,20.10
2022-08-05T05:24:57.451Z,20.20
2022-08-05T05:27:44.946Z,20.20
2022-08-05T05:30:29.866Z,20.20
2022-08-05T05:33:00.986Z,20.20
2022-08-05T05:35:38.053Z,20.30
2022-08-05T05:38:13.250Z,20.30
2022-08-05T05:40:49.687Z,20.30
2022-08-05T05:43:27.544Z,20.30
2022-08-05T05:46:15.764Z,20.30
2022-08-05T05:48:44.058Z,20.40
2022-08-05T05:51:15.587Z,20.40
2022-08-05T05:53:54.214Z,20.40
2022-08-05T05:56:32.217Z,20.30
2022-08-05T05:59:08.035Z,20.20
2022-08-05T06:01:38.965Z,20.10
2022-08-05T06:04:08.125Z,20.10
2022-08-05T06:06:36.058Z,20.30
2022-08-05T06:09:05.330Z,20.30
2022-08-05T06:11:33.048Z,20.30
2022-08-05T06:16:36.716Z,20.50
2022-08-05T06:19:05.793Z,20.60
2022-08-05T06:21:36.844Z,20.60
2022-08-05T06:24:12.353Z,20.70
2022-08-05T06:26:51.478Z,20.70
2022-08-05T06:29:43.193Z,20.70
2022-08-05T06:32:25.360Z,20.80
2022-08-05T06:34:58.295Z,21.00
2022-08-05T06:37:58.326Z,21.00
2022-08-05T06:40:18.449Z,21.10
2022-08-05T06:42:51.863Z,21.10
2022-08-05T06:45:44.753Z,21.10
2022-08-05T06:48:37.016Z,21.00
2022-08-05T06:50:56.425Z,21.10
2022-08-05T06:53:28.590Z,21.10
2022-08-05T06:56:00.416Z,21.20
2022-08-05T06:58:35.408Z,21.20
2022-08-05T07:01:07.714Z,21.00
2022-08-05T07:03:35.132Z,21.10
2022-08-05T07:06:10.380Z,21.00
2022-08-05T07:08:47.881Z,21.10
2022-08-05T07:11:22.427Z,21.20
2022-08-05T07:14:20.260Z,21.20
2022-08-05T07:17:58.904Z,21.10
2022-08-05T07:20:23.080Z,21.20
2022-08-05T07:22:28.631Z,21.20
2022-08-05T07:25:22.022Z,21.10
2022-08-05T07:27:57.970Z,21.10
2022-08-05T07:30:38.525Z,21.10
2022-08-05T07:33:16.621Z,21.20
2022-08-05T07:36:03.567Z,21.10
2022-08-05T07:38:42.851Z,20.90
2022-08-05T07:42:07.063Z,20.90
2022-08-05T07:44:06.512Z,21.00
2022-08-05T07:46:41.456Z,21.10
2022-08-05T07:49:15.176Z,21.10
2022-08-05T07:51:53.154Z,21.00
2022-08-05T07:54:30.806Z,21.00
2022-08-05T07:57:16.730Z,21.00
2022-08-05T07:59:53.712Z,21.10
2022-08-05T08:02:30.887Z,20.90
2022-08-05T08:04:59.049Z,20.90
2022-08-05T08:07:28.511Z,21.00
2022-08-05T08:09:55.667Z,21.00
2022-08-05T08:12:33.541Z,21.00
2022-08-05T08:15:05.182Z,21.10
2022-08-05T08:17:46.332Z,21.30
2022-08-05T08:20:43.336Z,21.20
2022-08-05T08:23:11.631Z,21.00
2022-08-05T08:26:00.673Z,21.00
2022-08-05T08:28:36.427Z,21.10
2022-08-05T08:31:09.792Z,21.10
2022-08-05T08:33:41.788Z,21.10
2022-08-05T08:36:29.690Z,21.10
2022-08-05T08:38:59.473Z,21.10
2022-08-05T08:41:51.225Z,20.90
2022-08-05T08:45:20.398Z,21.00
2022-08-05T08:47:21.629Z,21.20
2022-08-05T08:50:22.855Z,21.70
2022-08-05T08:52:52.993Z,21.70
2022-08-05T08:56:02.018Z,21.50
2022-08-05T08:58:15.107Z,21.50
2022-08-05T09:00:47.301Z,21.30
2022-08-05T09:03:19.274Z,21.40
2022-08-05T09:06:08.675Z,21.10
2022-08-05T09:08:40.415Z,21.20
2022-08-05T09:11:13.865Z,21.40
2022-08-05T09:14:00.671Z,21.50
2022-08-05T09:16:30.620Z,21.60
2022-08-05T09:18:59.424Z,21.80
2022-08-05T09:22:17.840Z,21.80
2022-08-05T09:24:15.665Z,21.90
2022-08-05T09:26:47.491Z,21.90
2022-08-05T09:29:19.085Z,21.90
2022-08-05T09:32:42.125Z,22.00
2022-08-05T09:34:55.765Z,22.00
2022-08-05T09:38:12.892Z,22.40
2022-08-05T09:40:37.946Z,22.30
2022-08-05T09:43:10.269Z,22.20
2022-08-05T09:46:06.356Z,22.10
2022-08-05T09:48:36.983Z,22.00
2022-08-05T09:51:14.839Z,21.60
2022-08-05T09:53:54.805Z,21.50
2022-08-05T09:56:38.337Z,21.40
2022-08-05T09:59:17.221Z,21.30
2022-08-05T10:01:46.543Z,21.20
2022-08-05T10:04:16.052Z,21.20
2022-08-05T10:06:59.501Z,21.30
2022-08-05T10:09:30.065Z,21.30
2022-08-05T10:12:30.105Z,21.30
2022-08-05T10:15:20.616Z,21.30
2022-08-05T10:18:22.245Z,21.30
2022-08-05T10:20:57.953Z,21.10
2022-08-05T10:23:59.235Z,21.00
2022-08-05T10:26:24.267Z,20.90
2022-08-05T10:29:00.986Z,20.90
2022-08-05T10:32:51.964Z,20.70
2022-08-05T10:34:15.143Z,20.60
2022-08-05T10:36:44.292Z,20.60
2022-08-05T10:40:03.517Z,20.80
2022-08-05T10:42:22.723Z,20.80
2022-08-05T10:44:59.800Z,20.80
2022-08-05T10:47:36.466Z,20.80
2022-08-05T10:50:31.555Z,20.70
2022-08-05T10:53:01.008Z,20.80
2022-08-05T10:55:32.915Z,20.70
2022-08-05T10:58:20.550Z,20.50
2022-08-05T11:00:55.056Z,20.40
2022-08-05T11:03:27.427Z,20.20
2022-08-05T11:09:32.179Z,20.10
2022-08-05T11:12:37.272Z,20.00
2022-08-05T11:15:20.668Z,19.80
2022-08-05T11:18:05.899Z,19.90
2022-08-05T11:20:38.934Z,20.00
2022-08-05T11:24:04.240Z,20.00
2022-08-05T11:26:40.970Z,20.00
2022-08-05T11:29:40.990Z,20.10
2022-08-05T11:32:28.156Z,20.10
2022-08-05T11:34:56.264Z,19.90
2022-08-05T11:49:00.937Z,19.70
2022-08-05T11:51:43.685Z,19.80
2022-08-05T11:54:33.508Z,19.80
2022-08-05T11:57:08.807Z,20.00
2022-08-05T12:05:06.793Z,20.70
2022-08-05T12:10:45.004Z,21.20
2022-08-05T12:13:47.445Z,21.30
2022-08-05T12:16:14.435Z,21.30
2022-08-05T12:21:33.211Z,21.20
2022-08-05T12:24:10.768Z,21.30
2022-08-05T12:26:44.120Z,21.50
2022-08-05T12:29:39.100Z,21.30
2022-08-05T12:32:09.727Z,21.40
2022-08-05T12:34:40.242Z,21.40
2022-08-05T12:37:30.136Z,21.40
2022-08-05T12:40:03.465Z,21.50
2022-08-05T12:42:40.864Z,21.70
2022-08-05T12:45:09.918Z,21.70
2022-08-05T12:48:01.023Z,21.60
2022-08-05T12:50:30.848Z,21.60
2022-08-05T12:52:59.934Z,21.80
2022-08-05T12:55:32.945Z,21.90
2022-08-05T12:58:39.045Z,22.10
2022-08-05T13:02:01.519Z,22.00
2022-08-05T13:03:42.070Z,21.90
2022-08-05T13:06:15.859Z,22.00
2022-08-05T13:08:51.821Z,22.30
2022-08-05T13:11:25.417Z,22.30
2022-08-05T13:14:38.872Z,22.70
2022-08-05T13:17:20.574Z,23.00
2022-08-05T13:20:04.282Z,22.80
2022-08-05T13:22:32.818Z,22.90
2022-08-05T13:25:05.095Z,23.10
2022-08-05T13:27:37.773Z,23.20
2022-08-05T13:30:35.996Z,22.80
2022-08-05T13:32:57.527Z,22.80
2022-08-05T13:35:43.365Z,22.90
2022-08-05T13:38:30.234Z,23.00
2022-08-05T13:40:59.891Z,23.20
2022-08-05T13:43:45.924Z,23.00
2022-08-05T13:46:30.628Z,23.10
2022-08-05T13:49:10.061Z,23.20
2022-08-05T13:51:46.026Z,23.20
2022-08-05T13:54:15.526Z,22.90
2022-08-05T13:56:44.937Z,22.90
2022-08-05T13:59:20.080Z,22.90
2022-08-05T14:01:57.737Z,23.10
2022-08-05T14:04:51.166Z,23.20
2022-08-05T14:08:01.101Z,23.30
2022-08-05T14:10:28.853Z,23.30
2022-08-05T14:12:58.678Z,23.30
2022-08-05T14:16:06.816Z,23.50
2022-08-05T14:18:18.199Z,23.50
2022-08-05T14:20:48.934Z,23.40
2022-08-05T14:23:25.649Z,23.10
2022-08-05T14:25:59.661Z,23.00
2022-08-05T14:28:30.741Z,23.10
2022-08-05T14:31:03.102Z,23.30
2022-08-05T14:33:56.507Z,23.50
2022-08-05T14:36:20.620Z,23.90
2022-08-05T14:38:48.873Z,24.00
2022-08-05T14:41:18.826Z,24.20
2022-08-05T14:44:02.134Z,24.60
2022-08-05T14:46:37.577Z,24.40
2022-08-05T14:49:07.529Z,23.80
2022-08-05T14:51:42.587Z,23.40
2022-08-05T14:54:27.638Z,23.00
2022-08-05T14:56:57.477Z,22.90
2022-08-05T14:59:24.603Z,22.90
2022-08-05T15:01:54.155Z,22.90
2022-08-05T15:04:24.038Z,22.90
2022-08-05T15:06:56.315Z,22.90
2022-08-05T15:09:51.890Z,23.10
2022-08-05T15:12:11.694Z,23.10
2022-08-05T15:14:50.445Z,23.10
2022-08-05T15:17:46.021Z,23.20
2022-08-05T15:20:08.842Z,23.40
2022-08-05T15:22:41.399Z,23.40
2022-08-05T15:25:14.400Z,23.20
2022-08-05T15:27:51.995Z,23.10
2022-08-05T15:30:19.483Z,22.80
2022-08-05T15:32:46.615Z,22.80
2022-08-05T15:35:13.591Z,22.90
2022-08-05T15:38:31.749Z,22.90
2022-08-05T15:40:58.327Z,22.90
2022-08-05T15:43:21.516Z,22.80
2022-08-05T15:46:00.169Z,22.80
2022-08-05T15:48:28.309Z,22.70
2022-08-05T15:50:58.203Z,22.80
2022-08-05T15:53:38.055Z,23.00
2022-08-05T15:56:16.767Z,22.90
2022-08-05T15:58:44.648Z,22.90
2022-08-05T16:01:16.372Z,22.80
2022-08-05T16:03:48.540Z,22.70
2022-08-05T16:06:20.299Z,22.70
2022-08-05T16:08:48.186Z,22.60
2022-08-05T16:11:17.732Z,22.60
2022-08-05T16:13:45.534Z,22.50
2022-08-05T16:16:12.259Z,22.50
2022-08-05T16:18:52.314Z,22.50
2022-08-05T16:21:20.745Z,22.50
2022-08-05T16:24:07.681Z,22.60
2022-08-05T16:26:55.891Z,22.60
2022-08-05T16:29:28.812Z,22.50
2022-08-05T16:31:58.109Z,22.50
2022-08-05T16:34:26.254Z,22.40
2022-08-05T16:36:56.422Z,22.40
2022-08-05T16:40:04.841Z,22.60
2022-08-05T16:42:18.523Z,22.50
2022-08-05T16:44:57.138Z,22.60
2022-08-05T16:47:35.778Z,22.50
2022-08-05T16:50:10.183Z,22.50
2022-08-05T16:52:37.357Z,22.50
2022-08-05T16:55:04.819Z,22.50
2022-08-05T16:57:53.087Z,22.50
2022-08-05T17:00:33.887Z,22.50
2022-08-05T17:03:02.863Z,22.60
2022-08-05T17:05:30.706Z,22.60
2022-08-05T17:07:58.002Z,22.50
2022-08-05T17:10:26.543Z,22.40
2022-08-05T17:12:57.875Z,22.50
2022-08-05T17:15:24.936Z,22.50
2022-08-05T17:18:14.293Z,22.40
2022-08-05T17:20:42.222Z,22.40
2022-08-05T17:23:10.974Z,22.40
2022-08-05T17:26:00.060Z,22.40
2022-08-05T17:28:29.137Z,22.30
2022-08-05T17:30:58.985Z,22.30
2022-08-05T17:33:39.053Z,22.30
2022-08-05T17:36:32.791Z,22.40
2022-08-05T17:39:02.410Z,22.40
2022-08-05T17:42:28.386Z,22.40
2022-08-05T17:44:18.576Z,22.40
2022-08-05T17:46:59.188Z,22.40
2022-08-05T17:49:28.390Z,22.30
2022-08-05T17:52:15.569Z,22.10
2022-08-05T17:54:44.756Z,22.10
2022-08-05T17:57:12.012Z,22.10
2022-08-05T17:59:43.790Z,22.10
2022-08-05T18:02:11.365Z,22.20
2022-08-05T18:04:51.315Z,22.20
2022-08-05T18:07:21.724Z,22.10
2022-08-05T18:09:59.554Z,21.90
2022-08-05T18:12:27.677Z,21.80
2022-08-05T18:14:55.279Z,21.80
2022-08-05T18:18:01.458Z,21.90
2022-08-05T18:20:13.840Z,21.90
2022-08-05T18:22:53.737Z,21.90
2022-08-05T18:25:22.142Z,21.80
2022-08-05T18:27:52.227Z,21.80
2022-08-05T18:30:19.793Z,21.90
2022-08-05T18:32:53.459Z,21.90
2022-08-05T18:35:20.994Z,21.90
2022-08-05T18:38:09.210Z,21.60
2022-08-05T18:41:56.550Z,21.60
2022-08-05T18:43:25.977Z,21.60
2022-08-05T18:45:58.693Z,21.50
2022-08-05T18:48:33.344Z,21.40
2022-08-05T18:52:04.928Z,21.40
2022-08-05T18:54:06.595Z,21.40
2022-08-05T18:56:36.158Z,21.40
2022-08-05T18:59:05.096Z,21.20
2022-08-05T19:01:57.291Z,21.20
2022-08-05T19:04:27.379Z,21.20
2022-08-05T19:06:54.140Z,21.20
2022-08-05T19:09:21.508Z,21.30
2022-08-05T19:12:00.628Z,21.30
2022-08-05T19:14:53.288Z,21.20
2022-08-05T19:17:19.332Z,21.20
2022-08-05T19:19:46.827Z,21.30
2022-08-05T19:22:17.138Z,21.20
2022-08-05T19:24:55.919Z,21.10
2022-08-05T19:27:23.407Z,21.00
2022-08-05T19:29:51.765Z,21.00
2022-08-05T19:32:18.773Z,21.00
2022-08-05T19:34:55.104Z,21.00
2022-08-05T19:37:29.818Z,21.00
2022-08-05T19:40:10.990Z,21.00
2022-08-05T19:42:40.214Z,20.90
2022-08-05T19:45:08.184Z,20.80
2022-08-05T19:47:43.488Z,20.80
2022-08-05T19:50:13.178Z,20.80
2022-08-05T19:52:40.037Z,20.80
2022-08-05T19:56:11.812Z,20.90
2022-08-05T19:58:07.069Z,20.80
2022-08-05T20:00:43.302Z,20.70
2022-08-05T20:03:11.069Z,20.70
2022-08-05T20:05:50.254Z,20.70
2022-08-05T20:10:49.753Z,20.40
2022-08-05T20:13:29.867Z,20.40
2022-08-05T20:15:57.752Z,20.30
2022-08-05T20:21:05.150Z,20.30
2022-08-05T20:23:40.122Z,20.30
2022-08-05T20:26:19.776Z,20.30
2022-08-05T20:28:52.707Z,20.30
2022-08-05T20:31:21.878Z,20.20
2022-08-05T20:33:55.188Z,20.00
2022-08-05T20:36:25.963Z,20.10
2022-08-05T20:38:57.943Z,20.00
2022-08-05T20:41:27.330Z,19.90
2022-08-05T20:44:17.081Z,19.90
2022-08-05T20:46:49.066Z,19.80
2022-08-05T20:49:24.231Z,19.80
2022-08-05T20:51:55.987Z,19.70
2022-08-05T20:54:55.338Z,19.60
2022-08-05T20:57:42.313Z,19.60
2022-08-05T21:00:34.846Z,19.60
2022-08-05T21:03:01.326Z,19.60
2022-08-05T21:05:48.413Z,19.60
2022-08-05T21:08:19.440Z,19.60
2022-08-05T21:10:48.617Z,19.50
2022-08-05T21:13:26.606Z,19.50
2022-08-05T21:16:03.583Z,19.50
2022-08-05T21:53:21.939Z,18.70
2022-08-05T21:56:04.648Z,18.70
2022-08-05T21:58:42.077Z,18.60
2022-08-05T22:01:10.720Z,18.50
2022-08-05T22:03:48.652Z,18.50
2022-08-05T22:06:35.274Z,18.60
2022-08-05T22:09:15.122Z,18.70
2022-08-05T22:11:47.640Z,18.70
2022-08-05T22:14:33.979Z,18.80
2022-08-05T22:17:06.722Z,18.80
2022-08-05T22:20:01.348Z,18.70
2022-08-05T22:22:27.686Z,18.60
2022-08-05T22:25:20.986Z,18.70
2022-08-05T22:28:11.113Z,18.60
2022-08-05T22:30:44.329Z,18.60
2022-08-05T22:33:57.348Z,18.60
2022-08-05T22:36:17.895Z,18.60
2022-08-05T22:38:48.715Z,18.60
2022-08-05T22:42:04.266Z,18.60
2022-08-05T22:44:09.307Z,18.50
2022-08-05T22:46:40.073Z,18.50
2022-08-05T22:49:46.147Z,18.60
2022-08-05T22:52:05.945Z,18.60
2022-08-05T22:54:36.545Z,18.60
2022-08-05T22:57:06.799Z,18.60
2022-08-05T22:59:44.176Z,18.60
2022-08-05T23:02:29.209Z,18.60
2022-08-05T23:04:58.280Z,18.60
2022-08-05T23:07:29.271Z,18.60
2022-08-05T23:10:01.719Z,18.60
2022-08-05T23:12:32.412Z,18.70
2022-08-05T23:15:03.940Z,18.60
2022-08-05T23:18:00.585Z,18.60
2022-08-05T23:20:25.780Z,18.50
2022-08-05T23:22:55.884Z,18.50
2022-08-05T23:25:51.089Z,18.50
2022-08-05T23:30:43.545Z,18.40
2022-08-05T23:33:26.192Z,18.20
2022-08-05T23:36:05.713Z,18.20
2022-08-05T23:38:36.890Z,18.10
2022-08-05T23:41:05.793Z,18.10
2022-08-05T23:44:02.940Z,18.10
2022-08-05T23:46:23.219Z,18.10
2022-08-05T23:49:00.035Z,18.10
2022-08-05T23:54:30.299Z,17.90
